Daily Reports


Yearly Report

                  YEARLY CLIMATOLOGICAL SUMMARY FOR 2015
                                        HEAT  COOL        
     MEAN                               DEG   DEG       WIND SPEED       DOM MEAN  MEAN
MON  TEMP  HIGH   DATE     LOW   DATE   DAYS  DAYS RAIN AVG  HI  DATE    DIR BAROM HUM
---------------------------------------------------------------------------------------
1    38.9  72.0   1/4/15  12.8   1/8/15  812    2  3.41   4  30   1/4/15 WSW 30.05   71
2    32.8  67.9   2/8/15   7.5  2/20/15  903    0  1.39   5  46   2/2/15  NW 30.00   65
3    47.1  78.2  3/17/15  19.8   3/7/15  557    7  2.81   5  35  3/18/15 WSW 30.05   69
4    48.2  55.3   4/1/15  40.4   4/1/15   16    0  0.00   6  27   4/1/15  NE 29.99   57
---------------------------------------------------------------------------------------
TOT  39.9  78.2  3/17/15   7.5  2/20/15 2289    9  7.60   5  46   2/2/15 WSW 30.03   68

HEAT BASE: 65.0
COOL BASE: 65.0


Monthly Report

                  MONTHLY CLIMATOLOGICAL SUMMARY FOR 4/2015
                                        HEAT  COOL        
     MEAN                               DEG   DEG       WIND SPEED       DOM MEAN  MEAN
DAY  TEMP  HIGH   TIME     LOW   TIME   DAYS  DAYS RAIN AVG  HI  TIME    DIR BAROM HUM
---------------------------------------------------------------------------------------
1    48.2  55.3  12:00am  40.4   7:14am   16    0  0.00   6  28   5:32am  NE 29.99   57
---------------------------------------------------------------------------------------
TOT  48.2  55.3   4/1/15  40.4   4/1/15   16    0  0.00   6  27   4/1/15  NE 29.99   57

HEAT BASE: 65.0
COOL BASE: 65.0


Yearly Archive Report

Parameter                   Max   Max Time   Max Date        Min   Min Time   Min Date    Average
Wind Speed                   46    12:01pm     2/2/15          0    12:07am     1/1/15          5
Wind Gust                    46    12:01pm     2/2/15          0     1:20am     1/1/15         10
Out Temp                   78.2    11:28am    3/17/15        7.5     6:32am    2/20/15       39.9
Raw Barometer             30.73     8:44am    2/28/15      29.27    11:59am     2/2/15      30.04
Out Heat Ix                77.7    11:28am    3/17/15        8.5     6:32am    2/20/15       42.9


Monthly Archive Report

Parameter                   Max   Max Time   Max Date        Min   Min Time   Min Date    Average
Wind Speed                   27     5:32am     4/1/15          0    12:45am     4/1/15          6
Wind Gust                    27     5:32am     4/1/15          0     8:00pm     4/1/15         12
Out Temp                   55.3    12:00am     4/1/15       40.4     7:14am     4/1/15       48.0
Raw Barometer             30.18    10:14pm     4/1/15      29.71    12:00am     4/1/15      30.00
Out Heat Ix                58.1    12:00am     4/1/15       43.1     7:14am     4/1/15       49.6

 


Daily Archive Report

Parameter                   Max   Max Time        Min   Min Time    Average
Wind Speed                   27     5:32am          0    12:45am          6
Wind Gust                    28     5:32am          0     8:00pm         12
Out Temp                   55.3    12:00am       40.4     7:14am       48.0
Raw Barometer             30.18    10:14pm      29.71    12:00am      30.00
Out Heat Ix                58.1    12:00am       43.1     7:14am       49.6


Today's  Data File

4/1/15
Time         Wind Spd  Wind Gust       Temp  Raw Barom Heat Index  DailyRain
                  mph        mph         F         in         F         in
12:00am             7         16       55.3      29.71       58.1       0.00
12:20am             3         13       55.1      29.72       57.9       0.00
12:40am             5         13       54.6      29.73       57.6       0.00
1:00am              6         15       54.2      29.75       57.2       0.00
1:20am              9         11       53.7      29.75       56.8       0.00
1:40am              9         12       53.2      29.76       56.2       0.00
2:00am              8         15       53.0      29.77       55.6       0.00
2:20am              3         12       52.6      29.78       55.2       0.00
2:40am              7         16       50.6      29.79       53.8       0.00
3:00am              4         15       48.7      29.81       51.9       0.00
3:20am              7         11       47.7      29.82       51.1       0.00
3:40am              7         12       47.0      29.82       50.4       0.00
4:00am              3         13       46.0      29.83       49.7       0.00
4:20am              2         18       45.2      29.84       48.9       0.00
4:40am              7         16       44.3      29.85       48.1       0.00
5:00am              5         15       43.7      29.87       47.4       0.00
5:20am             11         19       42.8      29.88       46.0       0.00
5:40am              7         27       41.9      29.89       44.5       0.00
6:00am             13         20       41.4      29.90       44.0       0.00
6:20am             10         16       41.0      29.91       43.7       0.00
6:40am              6         12       40.7      29.92       43.4       0.00
7:00am              5         10       40.6      29.93       43.4       0.00
7:20am              4         13       40.4      29.95       43.2       0.00
7:40am              9         13       41.4      29.96       44.1       0.00
8:00am             10         13       42.0      29.98       44.5       0.00
8:20am              7         18       42.6      29.99       44.7       0.00
8:40am             15         18       43.3      30.00       45.1       0.00
9:00am             11         27       43.7      30.01       45.4       0.00
9:20am              8         16       45.1      30.01       46.8       0.00
9:40am              7         22       45.3      30.01       46.7       0.00
10:00am            13         22       46.0      30.02       47.2       0.00
10:20am             4         15       47.2      30.02       48.4       0.00
10:40am             5         21       47.9      30.02       48.6       0.00
11:00am             5         20       47.9      30.04       48.7       0.00
11:20am            11         16       48.3      30.04       49.2       0.00
11:40am             6         13       49.5      30.04       50.1       0.00
12:00pm             3         16       50.3      30.05       51.1       0.00
12:20pm            12         19       50.9      30.05       51.2       0.00
12:40pm             8         16       51.5      30.05       51.8       0.00
1:00pm              3         15       52.0      30.05       52.3       0.00
1:20pm              4         14       50.5      30.05       51.2       0.00
1:40pm              5         12       51.3      30.06       51.9       0.00
2:00pm             12         13       50.8      30.06       51.3       0.00
2:20pm              2         12       51.5      30.06       52.2       0.00
2:40pm             12         13       52.3      30.06       52.6       0.00
3:00pm             10         15       52.2      30.07       52.5       0.00
3:20pm              9         12       51.7      30.07       51.9       0.00
3:40pm             10         11       52.6      30.07       52.7       0.00
4:00pm              5         12       52.0      30.07       52.2       0.00
4:20pm              9         14       51.3      30.07       51.5       0.00
4:40pm             12         12       51.5      30.07       51.7       0.00
5:00pm              7          9       51.6      30.08       51.9       0.00
5:20pm              3          8       51.7      30.08       52.0       0.00
5:40pm              9         11       51.5      30.08       51.8       0.00
6:00pm              6          9       51.6      30.09       51.9       0.00
6:20pm              3          7       51.6      30.10       51.9       0.00
6:40pm              5          7       51.3      30.10       51.6       0.00
7:00pm              3          6       50.6      30.11       51.2       0.00
7:20pm              2          9       49.6      30.10       50.3       0.00
7:40pm              1          6       48.5      30.11       49.5       0.00
8:00pm              0          3       47.5      30.13       48.5       0.00
8:20pm              1          4       46.9      30.14       47.8       0.00
8:40pm              0          3       46.6      30.14       47.5       0.00
9:00pm              0          0       46.1      30.16       47.1       0.00
9:20pm              0          0       45.5      30.16       46.7       0.00
9:40pm              2          2       45.0      30.16       46.4       0.00
10:00pm             0          1       44.7      30.18       46.1       0.00
10:20pm             0          0       44.6      30.18       46.2       0.00
10:40pm             1          1       44.4      30.18       46.2       0.00
11:00pm             1          2       44.4      30.18       46.3       0.00
11:20pm             0          2       44.4      30.18       46.5       0.00
11:40pm             0          1       44.1      30.18       46.6       0.00

 


Yesterday's Data File

3/31/15
Time         Wind Spd  Wind Gust       Temp  Raw Barom Heat Index  DailyRain
                  mph        mph         F         in         F         in
12:00am             1          3       49.3      29.89       54.1       0.00
12:20am             0          2       48.8      29.89       53.3       0.00
12:40am             0          0       48.4      29.89       52.6       0.00
1:00am              0          0       48.3      29.89       52.3       0.00
1:20am              0          0       48.4      29.89       52.1       0.00
1:40am              0          0       47.7      29.89       51.9       0.00
2:00am              0          0       46.5      29.89       50.7       0.00
2:20am              0          0       45.9      29.89       50.4       0.00
2:40am              0          0       45.3      29.89       49.7       0.00
3:00am              0          0       45.2      29.89       49.8       0.00
3:20am              0          2       45.1      29.88       49.6       0.00
3:40am              0          0       45.0      29.88       49.6       0.00
4:00am              0          4       45.1      29.88       49.5       0.00
4:20am              0          0       45.0      29.88       49.1       0.00
4:40am              0          3       44.4      29.88       48.6       0.00
5:00am              0          2       43.6      29.88       47.7       0.00
5:20am              0          0       43.2      29.88       47.3       0.00
5:40am              0          0       42.4      29.88       46.8       0.00
6:00am              0          2       41.8      29.88       46.3       0.00
6:20am              1          5       41.4      29.88       46.0       0.00
6:40am              0          2       40.7      29.89       45.3       0.00
7:00am              0          1       40.2      29.90       45.0       0.00
7:20am              0          3       40.2      29.89       45.1       0.00
7:40am              0          2       41.3      29.90       46.2       0.00
8:00am              0          3       43.8      29.89       47.9       0.00
8:20am              1          4       46.4      29.90       49.6       0.00
8:40am              2          5       50.3      29.90       51.9       0.00
9:00am              4         11       52.6      29.90       53.5       0.00
9:20am              5         13       53.8      29.90       54.3       0.00
9:40am              5         13       55.2      29.90       55.5       0.00
10:00am             5         11       56.4      29.88       56.5       0.00
10:20am             6         13       57.8      29.88       57.8       0.00
10:40am             7         16       59.0      29.87       58.8       0.00
11:00am             6         13       60.3      29.86       59.8       0.00
11:20am             6         14       62.1      29.85       61.6       0.00
11:40am             8         18       62.3      29.85       61.8       0.00
12:20pm             5         14       64.9      29.81       64.3       0.00
12:40pm            10         18       65.0      29.81       64.3       0.00
1:00pm             14         18       65.4      29.77       64.8       0.00
1:20pm              5         18       66.2      29.76       65.5       0.00
1:40pm              5         16       66.6      29.75       65.9       0.00
2:00pm              1         17       67.4      29.72       66.7       0.00
2:20pm              6         17       68.6      29.70       67.8       0.00
2:40pm             11         27       67.8      29.69       67.0       0.00
3:00pm             24         24       68.4      29.66       67.7       0.00
3:20pm             10         18       69.5      29.64       68.7       0.00
3:40pm             10         22       68.8      29.63       68.0       0.00
4:00pm             10         20       69.3      29.61       68.6       0.00
4:20pm             10         21       69.5      29.59       68.8       0.00
4:40pm             13         27       70.1      29.59       69.2       0.00
5:00pm              6         23       69.8      29.58       69.2       0.00
5:20pm             17         24       69.7      29.56       68.8       0.00
5:40pm             15         28       69.4      29.56       68.5       0.00
6:00pm             16         20       69.2      29.56       68.4       0.00
6:20pm             16         21       69.0      29.56       68.3       0.00
6:40pm             13         22       68.6      29.54       67.8       0.00
7:00pm              9         20       68.1      29.52       67.4       0.00
7:20pm             11         18       67.5      29.53       66.8       0.00
7:40pm              5         21       67.0      29.53       66.4       0.00
8:00pm             11         16       66.5      29.55       66.0       0.00
8:20pm              7         17       66.3      29.56       65.8       0.00
8:40pm              3         12       65.8      29.56       65.4       0.00
9:00pm              8          9       65.8      29.59       65.6       0.00
9:20pm              7         10       65.6      29.59       65.5       0.00
9:40pm              0          4       65.7      29.60       65.6       0.00
10:00pm             2          3       65.2      29.61       65.3       0.00
10:20pm             9          9       64.9      29.64       65.0       0.00
10:40pm             5         27       64.4      29.64       65.2       0.00
11:00pm             5         16       58.7      29.68       61.0       0.00
11:20pm            11         18       56.9      29.68       59.5       0.00
11:40pm             7         16       55.9      29.70       58.6       0.00